Time;durP1;ratioP1;P1;durP2;ratioP2;P2;SDS_P1;SDS_P2;PMS_P1;PMS_P2;Temp;Humidity;BMP_temperature;BMP_pressure;BME280_temperature;BME280_humidity;BME280_pressure;Samples;Min_cycle;Max_cycle;Signal;HPM_P1;HPM_P2
2023/04/28 00:01:59;;;;;;;2.92;2.63;;;;;;;13.90;58.57;101307.97;5026712;28;20542;-47
2023/04/28 00:04:25;;;;;;;2.30;2.10;;;;;;;13.91;58.98;101303.44;5027049;28;20140;-48
2023/04/28 00:06:50;;;;;;;2.95;2.08;;;;;;;13.90;58.90;101305.28;5027135;28;20380;-48
2023/04/28 00:09:16;;;;;;;2.67;2.05;;;;;;;13.90;58.54;101307.97;5033593;28;20472;-49
2023/04/28 00:11:44;;;;;;;2.40;2.20;;;;;;;13.90;58.70;101297.25;5026695;28;20114;-51
2023/04/28 00:14:09;;;;;;;3.08;2.20;;;;;;;13.90;58.96;101286.53;5026257;28;20380;-50
2023/04/28 00:16:35;;;;;;;2.30;2.10;;;;;;;13.90;58.90;101283.88;5026201;28;20037;-51
2023/04/28 00:19:00;;;;;;;2.30;2.10;;;;;;;13.89;58.55;101280.31;5027376;28;20053;-48
2023/04/28 00:21:27;;;;;;;2.58;2.20;;;;;;;13.90;58.70;101286.53;5026027;28;20107;-50
2023/04/28 00:23:53;;;;;;;2.33;2.13;;;;;;;13.89;58.60;101284.81;5026561;28;20044;-50
2023/04/28 00:26:18;;;;;;;2.60;2.38;;;;;;;13.90;58.78;101289.22;5025814;28;20029;-51
2023/04/28 00:28:43;;;;;;;2.55;2.10;;;;;;;13.89;58.48;101287.50;5026314;28;20037;-49
2023/04/28 00:31:14;;;;;;;2.90;2.60;;;;;;;13.88;58.60;101280.44;5008998;28;20056;-50
2023/04/28 00:33:40;;;;;;;2.30;2.10;;;;;;;13.89;58.42;101272.28;5026067;28;20399;-50
2023/04/28 00:36:06;;;;;;;2.38;1.95;;;;;;;13.88;58.81;101261.69;5026554;28;20116;-50
2023/04/28 00:38:31;;;;;;;2.50;1.90;;;;;;;13.89;58.75;101255.38;5025999;28;20044;-47
2023/04/28 00:40:57;;;;;;;2.42;1.98;;;;;;;13.88;58.84;101254.53;5020376;28;20030;-48
2023/04/28 00:43:22;;;;;;;2.47;2.25;;;;;;;13.88;58.90;101256.34;5026583;28;20046;-47
2023/04/28 00:45:49;;;;;;;2.30;2.10;;;;;;;13.87;58.74;101251.94;5025724;28;20033;-48
2023/04/28 00:48:14;;;;;;;2.42;1.83;;;;;;;13.88;58.86;101251.00;5026168;28;20029;-48
2023/04/28 00:50:40;;;;;;;2.38;2.17;;;;;;;13.88;58.99;101248.31;5025573;28;20400;-47
2023/04/28 00:53:06;;;;;;;2.28;2.08;;;;;;;13.87;58.81;101249.28;5022016;28;20500;-47
2023/04/28 00:55:34;;;;;;;3.03;2.20;;;;;;;13.87;58.79;101244.75;5026456;28;20109;-46
2023/04/28 00:57:59;;;;;;;2.47;2.28;;;;;;;13.88;58.97;101234.94;5026852;28;20034;-47
2023/04/28 01:00:25;;;;;;;2.25;2.00;;;;;;;13.87;58.59;101234.06;5025675;28;20278;-45
2023/04/28 01:02:52;;;;;;;2.22;2.00;;;;;;;13.87;58.85;101235.88;5026527;28;20041;-48
2023/04/28 01:05:18;;;;;;;2.65;1.98;;;;;;;13.87;58.95;101235.88;5025458;28;20026;-47
2023/04/28 01:07:43;;;;;;;2.67;2.10;;;;;;;13.87;58.92;101227.84;5024748;28;20058;-49
2023/04/28 01:10:09;;;;;;;2.38;1.90;;;;;;;13.86;58.57;101221.66;5026751;28;20037;-50
2023/04/28 01:12:34;;;;;;;2.35;2.15;;;;;;;13.87;58.91;101222.50;5025793;28;20034;-46
2023/04/28 01:15:00;;;;;;;2.55;1.95;;;;;;;13.87;58.67;101227.84;5026063;28;20245;-47
2023/04/28 01:17:26;;;;;;;4.05;2.13;;;;;;;13.86;59.10;101221.66;5025571;28;20043;-47
2023/04/28 01:19:52;;;;;;;2.83;2.17;;;;;;;13.86;59.02;101210.94;5026168;28;20036;-48
2023/04/28 01:22:17;;;;;;;2.03;1.92;;;;;;;13.86;59.14;101202.91;5026806;28;20463;-48
2023/04/28 01:24:43;;;;;;;2.70;2.22;;;;;;;13.86;59.03;101189.53;5007864;28;20474;-49
2023/04/28 01:27:08;;;;;;;2.58;2.00;;;;;;;13.87;58.85;101190.38;5026163;28;20029;-46
2023/04/28 01:29:34;;;;;;;2.78;2.15;;;;;;;13.86;58.83;101176.16;5025447;28;20056;-46
2023/04/28 01:31:59;;;;;;;2.05;1.92;;;;;;;13.87;58.88;101182.34;5025871;28;20063;-48
2023/04/28 01:34:25;;;;;;;2.33;2.13;;;;;;;13.86;59.21;101183.34;5026242;28;20419;-48
2023/04/28 01:36:51;;;;;;;2.53;2.30;;;;;;;13.85;58.83;101186.97;5025628;28;20163;-47
2023/04/28 01:39:16;;;;;;;3.03;2.72;;;;;;;13.85;58.90;101189.66;5021242;28;20026;-46
2023/04/28 01:41:42;;;;;;;2.67;2.05;;;;;;;13.85;59.13;101178.94;5022681;28;20036;-46
2023/04/28 01:44:07;;;;;;;2.20;2.00;;;;;;;13.86;59.01;101183.34;5025651;28;20074;-49
2023/04/28 01:46:33;;;;;;;2.25;2.03;;;;;;;13.85;58.92;101179.78;5026560;28;20025;-48
2023/04/28 01:49:00;;;;;;;2.55;2.35;;;;;;;13.84;58.88;101180.75;5007705;28;20041;-49
2023/04/28 01:51:26;;;;;;;3.85;2.40;;;;;;;13.85;58.72;101165.56;5026068;28;20025;-47
2023/04/28 01:53:51;;;;;;;2.42;2.08;;;;;;;13.84;58.68;101161.16;5024995;28;20068;-48
2023/04/28 01:56:17;;;;;;;3.78;2.60;;;;;;;13.86;59.05;101161.94;5025405;28;20021;-47
2023/04/28 01:58:42;;;;;;;2.75;2.25;;;;;;;13.84;59.15;101162.03;5027906;28;20031;-48
2023/04/28 02:01:07;;;;;;;2.40;2.20;;;;;;;13.83;59.07;101162.97;5029252;28;20116;-47
2023/04/28 02:03:33;;;;;;;2.50;2.10;;;;;;;13.83;59.18;101162.13;5029964;28;20017;-55
2023/04/28 02:05:58;;;;;;;2.17;1.98;;;;;;;13.83;59.23;101167.50;5028643;28;20033;-55
2023/04/28 02:08:24;;;;;;;2.67;2.42;;;;;;;13.83;58.87;101162.97;5029031;28;20054;-55
2023/04/28 02:10:49;;;;;;;2.63;2.30;;;;;;;13.84;59.22;101166.50;5029603;28;20029;-55
2023/04/28 02:13:16;;;;;;;2.35;2.15;;;;;;;13.82;58.95;101163.97;5031364;28;20095;-55
2023/04/28 02:15:42;;;;;;;2.33;2.13;;;;;;;13.84;58.92;101163.81;5029152;28;20514;-55
2023/04/28 02:18:08;;;;;;;2.90;2.60;;;;;;;13.82;59.13;101163.09;5028758;28;20467;-55
2023/04/28 02:20:34;;;;;;;2.05;1.95;;;;;;;13.83;59.23;101156.78;5029199;28;20064;-55
2023/04/28 02:22:59;;;;;;;2.20;1.90;;;;;;;13.83;59.07;101151.44;5028314;28;20057;-55
2023/04/28 02:25:24;;;;;;;3.00;2.60;;;;;;;13.82;59.04;101139.00;5028876;28;20036;-55
2023/04/28 02:27:50;;;;;;;2.63;2.28;;;;;;;13.83;59.19;101135.38;5028990;28;20038;-55
2023/04/28 02:30:15;;;;;;;2.33;2.13;;;;;;;13.83;58.89;101130.88;5010703;28;20033;-55
2023/04/28 02:32:41;;;;;;;2.75;2.50;;;;;;;13.82;59.12;101122.94;5028871;28;20056;-55
2023/04/28 02:35:07;;;;;;;2.78;2.13;;;;;;;13.83;59.24;101116.63;5028472;28;20091;-55
2023/04/28 02:37:32;;;;;;;4.00;2.20;;;;;;;13.82;59.14;101106.88;5028459;28;20041;-55
2023/04/28 02:39:57;;;;;;;3.05;2.70;;;;;;;13.81;59.27;101092.66;5020474;28;20112;-55
2023/04/28 02:42:23;;;;;;;3.33;2.20;;;;;;;13.82;59.25;101093.50;5027957;28;20080;-55
2023/04/28 02:44:48;;;;;;;2.22;2.03;;;;;;;13.82;59.13;101085.47;5028310;28;20034;-55
2023/04/28 02:47:13;;;;;;;2.35;2.00;;;;;;;13.80;59.08;101087.41;5026148;28;20034;-55
2023/04/28 02:49:39;;;;;;;3.33;3.03;;;;;;;13.82;58.84;101082.78;5028840;28;20030;-55
2023/04/28 02:52:04;;;;;;;3.40;2.25;;;;;;;13.82;59.11;101072.97;5028535;28;20041;-55
2023/04/28 02:54:31;;;;;;;3.60;2.42;;;;;;;13.81;59.10;101070.41;5028221;28;20056;-55
2023/04/28 02:56:57;;;;;;;3.00;2.60;;;;;;;13.80;58.93;101074.03;5027752;28;20037;-55
2023/04/28 02:59:23;;;;;;;2.60;2.05;;;;;;;13.80;59.32;101068.69;5027802;28;20038;-55
2023/04/28 03:01:49;;;;;;;3.33;2.30;;;;;;;13.80;59.06;101060.66;5010368;28;20037;-55
2023/04/28 03:04:15;;;;;;;2.60;2.40;;;;;;;13.80;59.41;101071.34;5028640;28;20426;-55
2023/04/28 03:06:41;;;;;;;2.65;2.45;;;;;;;13.80;59.37;101076.72;5027667;28;20048;-54
2023/04/28 03:09:08;;;;;;;2.90;2.05;;;;;;;13.80;58.84;101082.06;5028813;28;20034;-55
2023/04/28 03:11:33;;;;;;;2.85;2.50;;;;;;;13.81;59.07;101076.59;5026795;28;20030;-55
2023/04/28 03:13:58;;;;;;;3.70;2.40;;;;;;;13.80;58.92;101071.34;5027847;28;20045;-55
2023/04/28 03:16:24;;;;;;;3.05;2.75;;;;;;;13.80;58.82;101071.34;5028313;28;20033;-55
2023/04/28 03:18:49;;;;;;;3.00;2.58;;;;;;;13.79;59.01;101065.16;5027582;28;20124;-55
2023/04/28 03:21:15;;;;;;;2.40;2.20;;;;;;;13.78;59.36;101055.41;5028363;28;20045;-55
2023/04/28 03:23:40;;;;;;;3.15;2.60;;;;;;;13.79;59.35;101056.28;5027604;28;20041;-55
2023/04/28 03:26:06;;;;;;;2.38;2.17;;;;;;;13.79;58.93;101062.47;5027743;28;20162;-55
2023/04/28 03:28:32;;;;;;;4.10;2.78;;;;;;;13.79;59.53;101061.63;5028206;28;20113;-55
2023/04/28 03:30:57;;;;;;;3.28;2.80;;;;;;;13.79;59.19;101066.97;5027227;28;20041;-55
2023/04/28 03:33:22;;;;;;;3.35;2.53;;;;;;;13.78;58.93;101068.78;5027814;28;20033;-55
2023/04/28 03:35:48;;;;;;;4.85;2.92;;;;;;;13.78;59.23;101068.78;5026945;28;20033;-55
2023/04/28 03:38:13;;;;;;;3.53;2.58;;;;;;;13.78;59.39;101063.44;5027525;28;20033;-55
2023/04/28 03:40:39;;;;;;;3.92;2.72;;;;;;;13.78;59.08;101062.59;5009419;28;20487;-55
2023/04/28 03:43:04;;;;;;;5.30;3.13;;;;;;;13.79;59.40;101058.94;5027185;28;20114;-55
2023/04/28 03:45:29;;;;;;;3.00;2.47;;;;;;;13.77;59.13;101056.38;5013678;28;20037;-55
2023/04/28 03:47:55;;;;;;;3.63;3.00;;;;;;;13.77;59.31;101061.75;5026827;28;20045;-55
2023/04/28 03:50:20;;;;;;;3.88;2.80;;;;;;;13.77;59.27;101060.91;5027210;28;20041;-55
2023/04/28 03:52:46;;;;;;;2.70;2.50;;;;;;;13.77;59.59;101052.88;5026224;28;20037;-55
2023/04/28 03:55:11;;;;;;;3.92;2.70;;;;;;;13.76;59.64;101054.66;5027255;28;20064;-55
2023/04/28 03:57:37;;;;;;;2.70;2.50;;;;;;;13.78;59.03;101051.88;5009673;28;20065;-55
2023/04/28 04:00:03;;;;;;;4.35;3.17;;;;;;;13.76;59.13;101049.31;5026438;28;20037;-55
2023/04/28 04:02:28;;;;;;;2.80;2.60;;;;;;;13.76;59.28;101053.81;5027285;28;20033;-55
2023/04/28 04:04:53;;;;;;;2.90;2.63;;;;;;;13.76;59.25;101038.59;5026268;28;20472;-55
2023/04/28 04:07:20;;;;;;;2.67;2.47;;;;;;;13.77;59.47;101042.16;5026551;28;20065;-55
2023/04/28 04:09:46;;;;;;;2.63;2.42;;;;;;;13.76;59.67;101037.75;5035261;28;20098;-55
2023/04/28 04:12:11;;;;;;;3.50;2.75;;;;;;;13.76;59.46;101032.41;5027205;28;20041;-55
2023/04/28 04:14:36;;;;;;;2.92;2.72;;;;;;;13.76;59.30;101029.72;5027049;28;20498;-55
2023/04/28 04:17:02;;;;;;;4.25;2.80;;;;;;;13.76;59.43;101032.41;5026348;28;20038;-55
2023/04/28 04:19:27;;;;;;;3.38;2.70;;;;;;;13.76;59.55;101027.06;5026615;28;20041;-54
2023/04/28 04:21:52;;;;;;;3.00;2.67;;;;;;;13.75;59.51;101030.72;5026249;28;20546;-55
2023/04/28 04:24:18;;;;;;;3.03;2.70;;;;;;;13.75;59.58;101030.72;5026272;28;20550;-55
2023/04/28 04:26:43;;;;;;;2.70;2.38;;;;;;;13.76;59.23;101027.06;5027453;28;20034;-55
2023/04/28 04:29:08;;;;;;;2.92;2.63;;;;;;;13.75;59.69;101034.25;5025933;28;20476;-55
2023/04/28 04:31:34;;;;;;;3.45;2.75;;;;;;;13.75;59.43;101036.06;5026305;28;20395;-55
2023/04/28 04:33:59;;;;;;;3.83;2.72;;;;;;;13.75;59.66;101036.06;5026734;28;20077;-55
2023/04/28 04:36:25;;;;;;;3.08;2.78;;;;;;;13.74;59.64;101035.19;5025975;28;20065;-55
2023/04/28 04:38:50;;;;;;;2.92;2.65;;;;;;;13.75;59.74;101036.91;5026881;28;20052;-55
2023/04/28 04:41:19;;;;;;;2.90;2.60;;;;;;;13.74;59.71;101029.00;5025722;28;20030;-55
2023/04/28 04:43:45;;;;;;;2.72;2.53;;;;;;;13.74;59.52;101013.78;5021874;28;20033;-48
2023/04/28 04:46:10;;;;;;;2.70;2.47;;;;;;;13.74;59.59;101012.94;5026557;28;20096;-48
2023/04/28 04:48:35;;;;;;;3.75;2.88;;;;;;;13.74;59.58;101002.22;5026766;28;20034;-48
2023/04/28 04:51:01;;;;;;;3.63;3.03;;;;;;;13.74;59.70;101007.59;5025876;28;20029;-47
2023/04/28 04:53:26;;;;;;;3.08;2.75;;;;;;;13.75;59.44;101009.31;5026320;28;20056;-50
2023/04/28 04:55:51;;;;;;;3.40;3.10;;;;;;;13.73;59.25;101004.06;5025499;28;20109;-49
2023/04/28 04:58:17;;;;;;;3.47;3.15;;;;;;;13.73;59.33;100996.03;5026088;28;20029;-46
2023/04/28 05:00:42;;;;;;;2.72;2.53;;;;;;;13.73;59.63;101000.50;5026940;28;20033;-47
2023/04/28 05:03:08;;;;;;;3.75;3.17;;;;;;;13.74;59.39;101002.22;5025748;28;20026;-47
2023/04/28 05:05:34;;;;;;;4.15;3.08;;;;;;;13.74;59.81;100999.56;5026298;28;20069;-47
2023/04/28 05:07:59;;;;;;;4.65;3.15;;;;;;;13.73;59.52;100989.81;5025337;28;20092;-49
2023/04/28 05:10:25;;;;;;;3.00;2.80;;;;;;;13.73;59.51;101000.50;5026030;28;20056;-47
2023/04/28 05:12:50;;;;;;;4.22;3.00;;;;;;;13.73;59.63;100995.16;5027753;28;20092;-47
2023/04/28 05:15:15;;;;;;;4.45;3.28;;;;;;;13.73;59.81;101001.41;5026681;28;20030;-47
2023/04/28 05:17:41;;;;;;;4.40;3.20;;;;;;;13.73;59.68;100992.50;5025846;28;20523;-47
2023/04/28 05:20:07;;;;;;;3.92;3.22;;;;;;;13.72;59.54;100980.94;5025816;28;20038;-48
2023/04/28 05:22:32;;;;;;;3.83;3.13;;;;;;;13.72;59.78;100980.94;5026335;28;20484;-50
2023/04/28 05:24:57;;;;;;;3.42;3.10;;;;;;;13.73;59.54;100974.63;5025865;28;20042;-47
2023/04/28 05:27:23;;;;;;;3.55;3.20;;;;;;;13.72;59.56;100980.09;5026185;28;20036;-49
2023/04/28 05:29:48;;;;;;;4.03;3.15;;;;;;;13.72;59.82;100972.06;5025248;28;20041;-48
2023/04/28 05:32:14;;;;;;;4.43;3.15;;;;;;;13.73;59.87;100976.44;5026415;28;20038;-48
2023/04/28 05:34:39;;;;;;;3.30;2.90;;;;;;;13.73;59.97;100987.13;5017032;28;20030;-48
2023/04/28 05:37:04;;;;;;;3.55;3.05;;;;;;;13.73;59.66;100992.50;5029947;28;20040;-51
2023/04/28 05:39:30;;;;;;;4.15;3.40;;;;;;;13.73;59.54;100990.69;5028284;28;20030;-49
2023/04/28 05:41:57;;;;;;;3.65;3.13;;;;;;;13.71;59.49;100983.72;5029486;28;20026;-49
2023/04/28 05:44:22;;;;;;;3.45;3.15;;;;;;;13.72;59.48;100988.97;5029162;28;20108;-48
2023/04/28 05:46:48;;;;;;;3.72;3.22;;;;;;;13.72;59.53;100982.75;5029506;28;20034;-49
2023/04/28 05:49:13;;;;;;;3.63;3.00;;;;;;;13.73;59.47;100984.47;5030401;28;20385;-49
2023/04/28 05:51:38;;;;;;;4.22;3.35;;;;;;;13.71;60.02;100981.94;5029233;28;20034;-48
2023/04/28 05:54:04;;;;;;;3.70;2.90;;;;;;;13.73;59.96;100982.66;5029780;28;20022;-48
2023/04/28 05:56:29;;;;;;;4.15;2.85;;;;;;;13.74;59.94;100983.50;5028763;28;20105;-49
2023/04/28 05:58:55;;;;;;;3.67;3.28;;;;;;;13.74;59.66;100983.50;5029261;28;20497;-47
2023/04/28 06:01:21;;;;;;;4.75;3.53;;;;;;;13.74;59.79;100986.19;5029718;28;20040;-47
2023/04/28 06:03:47;;;;;;;3.42;3.10;;;;;;;13.73;59.31;100988.00;5029398;28;20044;-48
2023/04/28 06:06:12;;;;;;;3.13;2.83;;;;;;;13.74;59.66;100984.34;5029476;28;20037;-47
2023/04/28 06:08:38;;;;;;;4.32;3.47;;;;;;;13.74;59.65;100975.47;5028472;28;20551;-47
2023/04/28 06:11:04;;;;;;;3.20;2.90;;;;;;;13.74;59.77;100980.81;5029168;28;20087;-47
2023/04/28 06:13:29;;;;;;;4.47;3.35;;;;;;;13.74;59.80;100986.19;5015785;28;20040;-49
2023/04/28 06:15:55;;;;;;;4.25;3.20;;;;;;;13.74;60.02;100978.16;5028502;28;20033;-48
2023/04/28 06:18:22;;;;;;;4.13;3.72;;;;;;;13.74;60.16;100986.19;5029127;28;20438;-48
2023/04/28 06:20:47;;;;;;;3.13;2.83;;;;;;;13.73;59.83;100976.44;5028800;28;20448;-47
2023/04/28 06:23:13;;;;;;;3.50;2.80;;;;;;;13.74;60.09;100991.53;5029082;28;20053;-49
2023/04/28 06:25:38;;;;;;;4.85;3.05;;;;;;;13.74;60.13;100984.34;5029355;28;20628;-47
2023/04/28 06:28:05;;;;;;;3.88;3.13;;;;;;;13.74;59.65;100987.03;5028448;28;20033;-48
2023/04/28 06:30:30;;;;;;;3.53;3.22;;;;;;;13.73;59.81;100979.09;5029143;28;20037;-51
2023/04/28 06:32:56;;;;;;;3.75;3.13;;;;;;;13.74;59.88;100980.81;5010365;28;20068;-47
2023/04/28 06:35:25;;;;;;;5.05;3.38;;;;;;;13.73;60.30;100982.66;5028883;28;20045;-50
2023/04/28 06:37:50;;;;;;;4.15;3.63;;;;;;;13.75;60.26;100977.19;5029153;28;20033;-47
2023/04/28 06:40:16;;;;;;;5.63;3.67;;;;;;;13.75;59.95;100982.56;5027499;28;20529;-49
2023/04/28 06:42:41;;;;;;;5.40;3.10;;;;;;;13.74;60.05;100986.19;5028764;28;20065;-48
2023/04/28 06:45:07;;;;;;;4.57;3.28;;;;;;;13.73;60.28;100998.72;5026843;28;20100;-48
2023/04/28 06:47:33;;;;;;;5.70;3.50;;;;;;;13.73;60.23;100987.13;5028439;28;20044;-47
2023/04/28 06:50:00;;;;;;;7.05;3.80;;;;;;;13.72;60.23;100983.63;5028952;28;20029;-48
2023/04/28 06:52:28;;;;;;;4.45;3.10;;;;;;;13.73;60.06;100976.44;5027912;28;20479;-48
2023/04/28 06:54:53;;;;;;;4.40;3.30;;;;;;;13.73;60.02;100971.06;5028534;28;20029;-47
2023/04/28 06:57:19;;;;;;;4.50;3.30;;;;;;;13.71;60.02;100965.88;5027949;28;20071;-48
2023/04/28 06:59:45;;;;;;;4.18;3.55;;;;;;;13.73;60.04;100968.41;5028099;28;20118;-49
2023/04/28 07:02:19;;;;;;;4.43;3.47;;;;;;;13.73;60.27;100965.72;5027652;28;20072;-48
2023/04/28 07:04:45;;;;;;;3.60;3.00;;;;;;;13.73;60.26;100963.94;5028112;28;20046;-47
2023/04/28 07:07:12;;;;;;;4.65;3.97;;;;;;;13.74;60.29;100964.78;5027977;28;20066;-50
2023/04/28 07:09:37;;;;;;;3.10;2.78;;;;;;;13.73;59.96;100961.25;5009831;28;20073;-46
2023/04/28 07:12:05;;;;;;;3.55;3.25;;;;;;;13.73;60.38;100966.59;5028127;28;20543;-46
2023/04/28 07:14:31;;;;;;;3.75;3.08;;;;;;;13.74;60.08;100962.09;5027032;28;20068;-48
2023/04/28 07:16:56;;;;;;;4.20;2.97;;;;;;;13.75;60.36;100951.28;5027785;28;20029;-48
2023/04/28 07:19:21;;;;;;;3.58;3.28;;;;;;;13.75;60.20;100950.44;5028324;28;20060;-51
2023/04/28 07:21:47;;;;;;;4.80;2.75;;;;;;;13.74;60.34;100952.25;5028129;28;20084;-48
2023/04/28 07:24:12;;;;;;;4.43;3.38;;;;;;;13.75;60.25;100945.94;5027920;28;20475;-47
2023/04/28 07:26:37;;;;;;;3.83;3.38;;;;;;;13.75;60.19;100955.78;5027104;28;20073;-48
2023/04/28 07:29:03;;;;;;;3.40;2.80;;;;;;;13.76;60.35;100950.28;5027851;28;20030;-48
2023/04/28 07:31:28;;;;;;;3.67;3.38;;;;;;;13.76;60.38;100949.44;5028027;28;20184;-47
2023/04/28 07:33:54;;;;;;;3.63;3.15;;;;;;;13.76;60.44;100947.63;5027313;28;20065;-48
2023/04/28 07:36:20;;;;;;;3.95;3.53;;;;;;;13.76;60.46;100962.84;5028477;28;20088;-46
2023/04/28 07:38:45;;;;;;;3.30;2.60;;;;;;;13.75;60.45;100953.97;5026859;28;20030;-48
2023/04/28 07:41:11;;;;;;;4.22;3.33;;;;;;;13.77;60.34;100969.91;5026378;28;20091;-47
2023/04/28 07:43:37;;;;;;;3.47;3.15;;;;;;;13.76;60.07;100973.53;5029009;28;20026;-50
2023/04/28 07:46:02;;;;;;;4.35;2.70;;;;;;;13.77;60.53;100972.59;5026906;28;20034;-48
2023/04/28 07:48:27;;;;;;;3.35;2.80;;;;;;;13.76;60.28;100973.53;5027593;28;20038;-46
2023/04/28 07:50:53;;;;;;;3.40;3.10;;;;;;;13.75;60.26;100967.34;5026686;28;20037;-47
2023/04/28 07:53:18;;;;;;;3.63;2.60;;;;;;;13.76;60.29;100968.19;5010229;28;20029;-49
2023/04/28 07:55:44;;;;;;;2.97;2.70;;;;;;;13.76;60.26;100974.38;5027876;28;20479;-46
2023/04/28 07:58:11;;;;;;;3.40;3.10;;;;;;;13.75;60.34;100972.69;5027038;28;20045;-48
2023/04/28 08:00:36;;;;;;;4.22;3.00;;;;;;;13.76;60.27;100977.06;5027340;28;20041;-49
2023/04/28 08:03:02;;;;;;;3.03;2.53;;;;;;;13.77;60.40;100972.59;5026603;28;20041;-47
2023/04/28 08:05:27;;;;;;;3.70;2.78;;;;;;;13.76;60.47;100971.69;5029985;28;20060;-48
2023/04/28 08:07:53;;;;;;;2.92;2.40;;;;;;;13.76;60.30;100966.34;5027637;28;20098;-48
2023/04/28 08:10:18;;;;;;;2.95;2.75;;;;;;;13.77;60.18;100972.59;5027043;28;20033;-48
2023/04/28 08:12:44;;;;;;;3.10;2.80;;;;;;;13.76;60.14;100966.34;5027087;28;20554;-48
2023/04/28 08:15:10;;;;;;;2.83;2.60;;;;;;;13.75;60.33;100967.34;5026236;28;20499;-46
2023/04/28 08:17:35;;;;;;;3.70;2.72;;;;;;;13.76;60.46;100969.03;5026739;28;20045;-46
2023/04/28 08:20:01;;;;;;;2.95;2.47;;;;;;;13.77;60.29;100967.22;5026057;28;20044;-47
2023/04/28 08:22:26;;;;;;;2.92;2.63;;;;;;;13.76;60.27;100969.03;5026395;28;20395;-49
2023/04/28 08:24:51;;;;;;;2.63;2.33;;;;;;;13.76;60.53;100966.34;5027359;28;20115;-47
2023/04/28 08:27:17;;;;;;;3.38;3.00;;;;;;;13.76;60.59;100971.69;5026113;28;20030;-47
2023/04/28 08:29:42;;;;;;;2.85;2.65;;;;;;;13.76;60.74;100971.69;5026614;28;20026;-46
2023/04/28 08:32:08;;;;;;;2.70;2.50;;;;;;;13.77;61.01;100975.25;5025698;28;20040;-47
2023/04/28 08:34:33;;;;;;;3.25;2.92;;;;;;;13.76;60.32;100974.38;5026135;28;20116;-47
2023/04/28 08:36:59;;;;;;;2.97;2.78;;;;;;;13.76;60.68;100973.53;5026729;28;20045;-47
2023/04/28 08:39:25;;;;;;;2.70;2.50;;;;;;;13.76;60.32;100974.38;5026178;28;20117;-51
2023/04/28 08:41:52;;;;;;;5.00;2.75;;;;;;;13.75;60.36;100972.69;5026396;28;20423;-49
2023/04/28 08:44:17;;;;;;;3.72;2.70;;;;;;;13.77;60.29;100972.59;5025687;28;20026;-47
2023/04/28 08:46:45;;;;;;;3.20;2.53;;;;;;;13.76;60.69;100966.34;5026000;28;20060;-47
2023/04/28 08:49:17;;;;;;;3.13;2.58;;;;;;;13.76;60.67;100969.03;5026654;28;20505;-47
2023/04/28 08:51:49;;;;;;;2.72;2.53;;;;;;;13.77;60.87;100970.75;5026372;28;20088;-48
2023/04/28 08:54:16;;;;;;;3.20;2.67;;;;;;;13.77;60.75;100970.75;5024273;28;20065;-47
2023/04/28 08:56:45;;;;;;;2.75;2.55;;;;;;;13.78;60.38;100974.28;5026130;28;20103;-47
2023/04/28 08:59:14;;;;;;;4.00;2.40;;;;;;;13.77;60.58;100975.25;5026796;28;20047;-47
2023/04/28 09:01:39;;;;;;;3.00;2.45;;;;;;;13.78;60.63;100972.44;5025964;28;20055;-48
2023/04/28 09:04:05;;;;;;;4.13;2.58;;;;;;;13.78;60.54;100982.31;5022228;28;20455;-47
2023/04/28 09:06:35;;;;;;;2.60;2.40;;;;;;;13.77;60.45;100984.13;5024658;28;20517;-47
2023/04/28 09:09:20;;;;;;;3.28;2.17;;;;;;;13.80;60.71;100972.31;5025516;28;20057;-47
2023/04/28 09:12:00;;;;;;;3.03;2.60;;;;;;;13.80;60.83;100977.69;5025399;28;20025;-47
2023/04/28 09:14:31;;;;;;;2.85;2.40;;;;;;;13.80;60.81;100977.69;5025985;28;20029;-48
2023/04/28 09:16:57;;;;;;;2.95;2.63;;;;;;;13.79;60.51;100973.31;5026219;28;20056;-48
2023/04/28 09:19:22;;;;;;;4.30;2.63;;;;;;;13.80;60.56;100972.31;5025848;28;20034;-47
2023/04/28 09:21:51;;;;;;;2.60;2.40;;;;;;;13.80;60.43;100964.31;5025802;28;20050;-47
2023/04/28 09:24:26;;;;;;;2.60;2.40;;;;;;;13.80;60.94;100973.22;5026270;28;20300;-46
2023/04/28 09:26:51;;;;;;;2.35;2.15;;;;;;;13.79;60.63;100973.31;5026099;28;20060;-48
2023/04/28 09:29:17;;;;;;;2.45;2.25;;;;;;;13.80;60.90;100966.97;5008691;28;20042;-49
2023/04/28 09:31:43;;;;;;;3.10;2.70;;;;;;;13.80;60.96;100975.88;5025531;28;20037;-48
2023/04/28 09:34:08;;;;;;;3.13;2.80;;;;;;;13.80;60.79;100964.31;5025924;28;20038;-47
2023/04/28 09:36:33;;;;;;;3.53;2.80;;;;;;;13.79;60.38;100965.28;5025374;28;20038;-48
2023/04/28 09:39:00;;;;;;;2.83;2.58;;;;;;;13.80;60.38;100973.22;5025544;28;20049;-47
2023/04/28 09:41:39;;;;;;;3.22;2.33;;;;;;;13.81;60.89;100966.03;5026122;28;20038;-46
2023/04/28 09:44:20;;;;;;;2.33;2.10;;;;;;;13.82;60.71;100967.72;5025300;28;20378;-47
2023/04/28 09:46:46;;;;;;;3.67;2.28;;;;;;;13.80;60.98;100980.34;5026207;28;20037;-47
2023/04/28 09:49:13;;;;;;;2.35;2.15;;;;;;;13.81;60.99;100968.69;5024973;28;20099;-48
2023/04/28 09:51:39;;;;;;;2.55;2.35;;;;;;;13.80;60.64;100964.31;5025477;28;20108;-47
2023/04/28 09:54:04;;;;;;;2.40;2.20;;;;;;;13.80;60.94;100981.25;5025995;28;20104;-47
2023/04/28 09:56:32;;;;;;;2.78;2.38;;;;;;;13.81;60.98;100977.56;5025271;28;20041;-47
2023/04/28 09:58:59;;;;;;;2.60;2.35;;;;;;;13.81;60.77;100976.72;5019977;28;20030;-47
2023/04/28 10:01:32;;;;;;;3.03;2.33;;;;;;;13.80;60.86;100975.88;5025754;28;20105;-49
2023/04/28 10:04:01;;;;;;;2.50;2.30;;;;;;;13.80;60.91;100977.69;5026755;28;20437;-48
2023/04/28 10:06:28;;;;;;;2.65;2.45;;;;;;;13.80;60.91;100975.88;5025687;28;20017;-49
2023/04/28 10:08:54;;;;;;;2.13;2.00;;;;;;;13.81;60.59;100982.09;5026110;28;20055;-46
2023/04/28 10:11:19;;;;;;;2.30;2.10;;;;;;;13.82;60.81;100971.25;5025024;28;20104;-48
2023/04/28 10:13:45;;;;;;;3.38;2.65;;;;;;;13.81;60.68;100969.53;5007805;28;20431;-47
2023/04/28 10:16:13;;;;;;;2.45;2.22;;;;;;;13.82;60.72;100978.41;5025843;28;20044;-49
2023/04/28 10:18:39;;;;;;;2.70;2.35;;;;;;;13.82;61.04;100979.28;5025149;28;20033;-46
2023/04/28 10:21:06;;;;;;;2.75;2.15;;;;;;;13.83;60.82;100985.50;5027745;28;20029;-47
2023/04/28 10:23:56;;;;;;;2.63;2.25;;;;;;;13.83;61.09;100980.13;5028632;28;20037;-46
2023/04/28 10:26:35;;;;;;;2.97;2.53;;;;;;;13.83;60.74;100977.47;5028867;28;20033;-48
2023/04/28 10:29:00;;;;;;;2.72;2.45;;;;;;;13.83;60.80;100969.44;5027982;28;20383;-48
2023/04/28 10:31:26;;;;;;;2.63;2.42;;;;;;;13.83;60.88;100980.13;5029665;28;20044;-50
2023/04/28 10:33:51;;;;;;;2.88;2.50;;;;;;;13.83;61.03;100978.31;5022410;28;20125;-46
2023/04/28 10:36:47;;;;;;;2.78;2.55;;;;;;;13.85;61.14;100975.53;5027990;28;20026;-47
2023/04/28 10:39:13;;;;;;;2.95;2.67;;;;;;;13.84;60.76;100974.69;5027354;28;20036;-47
2023/04/28 10:41:38;;;;;;;3.80;2.67;;;;;;;13.84;61.09;100971.13;5028653;28;20421;-46
2023/04/28 10:44:28;;;;;;;3.38;3.05;;;;;;;13.86;60.82;100966.53;5010070;28;20025;-47
2023/04/28 10:47:06;;;;;;;2.85;2.55;;;;;;;13.84;61.09;100963.09;5027671;28;20040;-49
2023/04/28 10:49:56;;;;;;;2.90;2.60;;;;;;;13.87;60.83;100961.03;5023773;28;20040;-47
2023/04/28 10:52:48;;;;;;;3.08;2.70;;;;;;;13.88;61.13;100964.59;5027029;28;20033;-48
2023/04/28 10:55:39;;;;;;;2.65;2.45;;;;;;;13.87;61.27;100963.72;5025534;28;20049;-47
2023/04/28 10:58:14;;;;;;;2.85;2.65;;;;;;;13.88;60.92;100967.28;5013011;28;20034;-48
2023/04/28 11:00:40;;;;;;;2.65;2.25;;;;;;;13.86;61.14;100959.34;5027449;28;20539;-48
2023/04/28 11:03:05;;;;;;;3.20;2.90;;;;;;;13.86;61.01;100963.88;5028132;28;20037;-48
2023/04/28 11:05:33;;;;;;;2.70;2.50;;;;;;;13.86;61.19;100958.50;5027142;28;20029;-52
2023/04/28 11:08:17;;;;;;;4.30;2.40;;;;;;;13.88;61.05;100956.56;5027836;28;20062;-47
2023/04/28 11:11:15;;;;;;;2.90;2.60;;;;;;;13.88;61.21;100953.88;5028249;28;20040;-48
2023/04/28 11:13:41;;;;;;;3.50;2.67;;;;;;;13.87;60.93;100944.97;5025770;28;20529;-48
2023/04/28 11:16:06;;;;;;;3.30;2.50;;;;;;;13.87;61.16;100949.50;5027350;28;20416;-48
2023/04/28 11:18:51;;;;;;;3.15;2.78;;;;;;;13.89;60.86;100944.88;5027892;28;20128;-51
2023/04/28 11:21:17;;;;;;;3.13;2.85;;;;;;;13.88;60.87;100948.53;5013009;28;20033;-47
2023/04/28 11:23:43;;;;;;;3.08;2.70;;;;;;;13.88;60.99;100945.88;5027422;28;20040;-48